Main page
METAR-TAF:

METAR-TAF

Airports :

Mitiga International Airport

Tripoli, Libya

latitude: 32-54N, longitude: 13-17E, elevation: 11 m

METAR: missing

Time: 07:57 (05:57 UTC)

Forecast

The report was made 12 hours and 57 minutes ago, at 17:00 UTC
Forecast valid from 24 at 18 UTC to 25 at 18 UTC
Wind 14 kt from the East
Visibility: 8000 m
Becoming
from 25 at 12 UTC to 25 at 14 UTC
Wind 12 kt from the North/Northeast

TAF: HLLM 241700Z 2418/2518 09014KT 8000 FE025 BECMG 2512/2514 03012KT

Weather observations and forecasts of more than 4000 airports (METAR and TAF reports).

The available stations are represented by yellow and red dots on the map.

Hover mouse over dot to see the name of the station.

Then click to see weather observations and forecasts.

To change the map : click on the green buttons with a black cross to zoom in, on the green button with a dash to zoom out, or on the green arrows for adjacent maps.


METAR-TAF: